Time;durP1;ratioP1;P1;durP2;ratioP2;P2;SDS_P1;SDS_P2;PMS_P1;PMS_P2;Temp;Humidity;BMP_temperature;BMP_pressure;BME280_temperature;BME280_humidity;BME280_pressure;Samples;Min_cycle;Max_cycle;Signal;HPM_P1;HPM_P2
2021/10/07 01:13:33;;;;;;;;;;;;;;;4.83;94.82;100406.41;4941914;28;20064;-82
2021/10/07 01:16:01;;;;;;;;;;;;;;;4.89;95.86;100403.72;4974716;28;19926;-82
2021/10/07 01:18:26;;;;;;;;;;;;;;;4.59;95.93;100395.25;4974226;28;19926;-82
2021/10/07 01:20:51;;;;;;;;;;;;;;;4.41;97.19;100401.53;4974929;28;19953;-83
2021/10/07 01:23:17;;;;;;;;;;;;;;;4.23;98.32;100404.25;4974772;28;20009;-82
2021/10/07 01:25:42;;;;;;;;;;;;;;;4.12;99.92;100399.97;4973506;28;19926;-82
2021/10/07 01:28:07;;;;;;;;;;;;;;;4.04;100.00;100399.16;4974709;28;19925;-83
2021/10/07 01:30:33;;;;;;;;;;;;;;;4.07;100.00;100390.38;4974606;28;19918;-83
2021/10/07 01:32:58;;;;;;;;;;;;;;;4.27;100.00;100398.13;4974659;28;20270;-82
2021/10/07 01:35:24;;;;;;;;;;;;;;;4.60;100.00;100388.25;4974548;28;19929;-83
2021/10/07 01:37:49;;;;;;;;;;;;;;;4.80;100.00;100402.03;4974692;28;19922;-83
2021/10/07 01:40:14;;;;;;;;;;;;;;;5.37;100.00;100403.22;4972923;28;19918;-87
2021/10/07 01:42:41;;;;;;;;;;;;;;;5.55;100.00;100395.13;4974453;28;19924;-82
2021/10/07 01:45:08;;;;;;;;;;;;;;;5.82;100.00;100388.63;4973385;28;19923;-83
2021/10/07 01:47:33;;;;;;;;;;;;;;;5.96;100.00;100393.72;4974564;28;19926;-83
2021/10/07 01:49:58;;;;;;;;;;;;;;;6.18;100.00;100396.91;4974432;28;19993;-83
2021/10/07 01:52:24;;;;;;;;;;;;;;;6.30;100.00;100398.50;4974207;28;19914;-82
2021/10/07 01:54:49;;;;;;;;;;;;;;;6.63;100.00;100393.56;4971816;28;20398;-85
2021/10/07 01:57:14;;;;;;;;;;;;;;;6.88;100.00;100393.16;4974151;28;19918;-87
2021/10/07 01:59:39;;;;;;;;;;;;;;;6.79;100.00;100394.16;4974246;28;20000;-82
2021/10/07 02:02:04;;;;;;;;;;;;;;;6.85;100.00;100399.31;4973818;28;19919;-83
2021/10/07 02:04:30;;;;;;;;;;;;;;;6.91;100.00;100393.94;4972819;28;19977;-83
2021/10/07 02:06:55;;;;;;;;;;;;;;;6.84;100.00;100397.56;4973911;28;19926;-83
2021/10/07 02:09:20;;;;;;;;;;;;;;;6.90;100.00;100396.59;4971351;28;19922;-87
2021/10/07 02:11:45;;;;;;;;;;;;;;;6.87;100.00;100391.41;4974041;28;19984;-83
2021/10/07 02:14:11;;;;;;;;;;;;;;;6.88;100.00;100398.41;4973736;28;19922;-83
2021/10/07 02:16:36;;;;;;;;;;;;;;;6.96;100.00;100393.00;4973737;28;20377;-84
2021/10/07 02:19:01;;;;;;;;;;;;;;;6.96;100.00;100396.50;4973835;28;19914;-82
2021/10/07 02:21:27;;;;;;;;;;;;;;;6.97;100.00;100386.81;4973675;28;20013;-83
2021/10/07 02:23:53;;;;;;;;;;;;;;;6.98;100.00;100393.84;4971067;28;19970;-82
2021/10/07 02:26:18;;;;;;;;;;;;;;;7.04;100.00;100385.81;4973189;28;19953;-82
2021/10/07 02:28:43;;;;;;;;;;;;;;;7.03;100.00;100389.34;4973632;28;19918;-83
2021/10/07 02:31:09;;;;;;;;;;;;;;;7.06;100.00;100381.38;4973444;28;20026;-82
2021/10/07 02:33:34;;;;;;;;;;;;;;;7.18;100.00;100396.09;4972139;28;19918;-82
2021/10/07 02:35:59;;;;;;;;;;;;;;;7.14;100.00;100387.38;4973475;28;20342;-82
2021/10/07 07:39:36;;;;;;;;;;;;;;;1.92;94.26;100615.66;5353653;23;20001;-82
2021/10/07 07:42:01;;;;;;;;;;;;;;;1.96;94.04;100619.16;4974694;28;19985;-81
2021/10/07 07:44:26;;;;;;;;;;;;;;;1.89;93.74;100623.47;4976621;28;19929;-81
2021/10/07 07:46:52;;;;;;;;;;;;;;;1.97;93.98;100613.06;4975343;28;19918;-81
2021/10/07 07:49:17;;;;;;;;;;;;;;;2.03;93.82;100617.44;4975112;28;20017;-81
2021/10/07 07:51:42;;;;;;;;;;;;;;;2.02;93.65;100618.31;4975489;28;19918;-80
2021/10/07 07:54:08;;;;;;;;;;;;;;;1.99;93.59;100630.53;4974137;28;19917;-81
2021/10/07 07:56:34;;;;;;;;;;;;;;;2.09;93.39;100627.94;4975574;28;19918;-81
2021/10/07 07:58:59;;;;;;;;;;;;;;;1.92;92.36;100639.19;4976465;28;19925;-81
2021/10/07 08:01:25;;;;;;;;;;;;;;;2.09;94.17;100635.78;4975430;28;19918;-81
2021/10/07 08:03:50;;;;;;;;;;;;;;;2.11;93.51;100639.31;4976470;28;19918;-81
2021/10/07 08:06:18;;;;;;;;;;;;;;;2.02;92.33;100641.84;4976269;28;19918;-81
2021/10/07 08:08:43;;;;;;;;;;;;;;;2.20;93.96;100639.31;4975110;28;19922;-81
2021/10/07 08:11:08;;;;;;;;;;;;;;;2.18;93.65;100639.31;4976154;28;20411;-81
2021/10/07 08:13:34;;;;;;;;;;;;;;;2.25;93.97;100634.13;4975968;28;19929;-81
2021/10/07 08:15:59;;;;;;;;;;;;;;;2.28;93.60;100639.38;4976127;28;19944;-81
2021/10/07 08:18:24;;;;;;;;;;;;;;;2.30;93.87;100635.03;4975948;28;19997;-81
2021/10/07 08:20:52;;;;;;;;;;;;;;;2.40;93.63;100631.59;4976024;28;19919;-80
2021/10/07 08:23:17;;;;;;;;;;;;;;;2.43;94.45;100630.72;4973952;28;19918;-81
2021/10/07 08:25:43;;;;;;;;;;;;;;;2.38;92.95;100633.31;4975369;28;19941;-81
2021/10/07 08:28:08;;;;;;;;;;;;;;;2.24;92.01;100637.63;4975955;28;19930;-81
2021/10/07 08:30:34;;;;;;;;;;;;;;;2.42;93.58;100642.06;4975707;28;19973;-81
2021/10/07 08:32:59;;;;;;;;;;;;;;;2.39;93.07;100642.03;4975737;28;19997;-81
2021/10/07 08:35:24;;;;;;;;;;;;;;;2.53;94.62;100648.19;4975652;28;19918;-81
2021/10/07 08:37:49;;;;;;;;;;;;;;;2.52;92.94;100649.94;4974420;28;19922;-81
2021/10/07 08:40:15;;;;;;;;;;;;;;;2.49;93.10;100649.03;4975467;28;19922;-81
2021/10/07 08:42:41;;;;;;;;;;;;;;;2.58;93.81;100645.59;4975686;28;20412;-81
2021/10/07 08:45:07;;;;;;;;;;;;;;;2.55;93.47;100643.84;4974176;28;19925;-81
2021/10/07 08:47:36;;;;;;;;;;;;;;;2.57;92.77;100646.47;4973380;28;20000;-81
2021/10/07 08:50:02;;;;;;;;;;;;;;;2.53;92.70;100643.81;4973585;28;19929;-81
2021/10/07 08:52:28;;;;;;;;;;;;;;;2.45;90.08;100639.44;4974460;28;19922;-81
2021/10/07 08:54:53;;;;;;;;;;;;;;;2.45;91.13;100642.94;4974183;28;19984;-81
2021/10/07 08:57:19;;;;;;;;;;;;;;;2.40;89.89;100639.44;4975224;28;20408;-81
2021/10/07 08:59:44;;;;;;;;;;;;;;;2.50;90.59;100641.19;4975285;28;19926;-81
2021/10/07 09:02:22;;;;;;;;;;;;;;;2.72;92.66;100644.75;4974988;28;20278;-81
2021/10/07 09:04:47;;;;;;;;;;;;;;;2.93;94.25;100648.31;4974944;28;19961;-81
2021/10/07 09:07:13;;;;;;;;;;;;;;;2.91;93.28;100639.59;4974999;28;20037;-81
2021/10/07 09:09:39;;;;;;;;;;;;;;;2.71;89.33;100643.03;4972418;28;19925;-81
2021/10/07 09:12:09;;;;;;;;;;;;;;;2.54;88.19;100639.50;4975043;28;19926;-81
2021/10/07 09:14:37;;;;;;;;;;;;;;;2.58;87.98;100636.00;4973769;28;19918;-81
2021/10/07 09:17:04;;;;;;;;;;;;;;;2.69;88.59;100649.13;4974527;28;19918;-81
2021/10/07 09:19:35;;;;;;;;;;;;;;;2.79;89.15;100647.41;4973550;28;19919;-81
2021/10/07 09:22:18;;;;;;;;;;;;;;;2.79;88.26;100647.41;4973593;28;19918;-81
2021/10/07 09:24:48;;;;;;;;;;;;;;;2.86;89.33;100657.03;4972348;28;19990;-82
2021/10/07 09:27:16;;;;;;;;;;;;;;;2.80;88.28;100659.63;4981021;28;19926;-81
2021/10/07 09:29:47;;;;;;;;;;;;;;;2.69;87.07;100657.84;4974810;28;20392;-81
2021/10/07 09:32:13;;;;;;;;;;;;;;;2.80;86.22;100657.00;4972767;28;20270;-81
2021/10/07 09:34:38;;;;;;;;;;;;;;;2.91;89.00;100656.16;4973293;28;19925;-81
2021/10/07 09:37:18;;;;;;;;;;;;;;;2.91;87.80;100650.06;4972583;28;19933;-81
2021/10/07 09:39:50;;;;;;;;;;;;;;;2.94;85.42;100643.97;4973067;28;19927;-81
2021/10/07 09:42:16;;;;;;;;;;;;;;;3.14;88.09;100641.38;4972662;28;19937;-81
2021/10/07 09:44:55;;;;;;;;;;;;;;;3.01;86.08;100649.19;4974587;28;19918;-81
2021/10/07 09:47:30;;;;;;;;;;;;;;;2.99;85.26;100647.47;4974329;28;20000;-81
2021/10/07 09:50:09;;;;;;;;;;;;;;;3.22;86.82;100644.84;4973990;28;19972;-81
2021/10/07 09:52:36;;;;;;;;;;;;;;;3.30;88.59;100637.00;4972564;28;19922;-81
2021/10/07 09:55:06;;;;;;;;;;;;;;;3.18;85.28;100637.91;4973772;28;19918;-81
2021/10/07 09:57:32;;;;;;;;;;;;;;;3.39;87.56;100647.50;4974118;28;19918;-81
2021/10/07 09:59:57;;;;;;;;;;;;;;;3.25;88.67;100642.25;4974259;28;19925;-81
2021/10/07 10:02:23;;;;;;;;;;;;;;;3.22;86.55;100637.91;4972714;28;19925;-81
2021/10/07 10:04:54;;;;;;;;;;;;;;;3.23;86.86;100644.00;4973986;28;19922;-81
2021/10/07 10:07:20;;;;;;;;;;;;;;;3.35;84.66;100640.50;4973818;28;19922;-81
2021/10/07 10:09:45;;;;;;;;;;;;;;;3.52;84.71;100637.91;4972767;28;19922;-81
2021/10/07 10:12:11;;;;;;;;;;;;;;;3.56;84.37;100635.28;4973981;28;19961;-81
2021/10/07 10:14:36;;;;;;;;;;;;;;;3.62;84.71;100642.25;4972620;28;19922;-81
2021/10/07 10:17:01;;;;;;;;;;;;;;;3.78;85.34;100635.22;4973705;28;20262;-81
2021/10/07 10:19:26;;;;;;;;;;;;;;;3.81;83.07;100644.00;4973765;28;19914;-81
2021/10/07 10:21:54;;;;;;;;;;;;;;;3.73;84.35;100629.13;4972489;28;19944;-81
2021/10/07 10:24:19;;;;;;;;;;;;;;;3.73;87.41;100632.63;4972420;28;19940;-81
2021/10/07 10:26:57;;;;;;;;;;;;;;;3.81;87.09;100624.75;4972716;28;20963;-81
2021/10/07 10:29:22;;;;;;;;;;;;;;;3.86;86.10;100640.47;4973551;28;19922;-81
2021/10/07 10:31:51;;;;;;;;;;;;;;;4.09;84.81;100636.06;4974315;28;19995;-81
2021/10/07 10:34:17;;;;;;;;;;;;;;;4.03;85.66;100637.81;4973484;28;19918;-81
2021/10/07 10:36:53;;;;;;;;;;;;;;;4.17;84.72;100639.53;4972180;28;19930;-81
2021/10/07 10:39:24;;;;;;;;;;;;;;;4.29;86.59;100630.75;4971643;28;19929;-81
2021/10/07 10:41:52;;;;;;;;;;;;;;;4.14;88.50;100631.66;4973355;28;19933;-81
2021/10/07 10:44:26;;;;;;;;;;;;;;;4.01;89.83;100635.22;4972493;28;19922;-81
2021/10/07 10:46:57;;;;;;;;;;;;;;;4.12;87.18;100629.94;4973318;28;19925;-81
2021/10/07 10:49:34;;;;;;;;;;;;;;;4.04;85.35;100639.56;4972582;28;19925;-81
2021/10/07 10:52:00;;;;;;;;;;;;;;;4.07;86.47;100640.44;4972790;28;19929;-81
2021/10/07 10:54:29;;;;;;;;;;;;;;;4.11;88.26;100641.28;4970549;28;19918;-81
2021/10/07 10:56:56;;;;;;;;;;;;;;;4.08;88.36;100634.28;4971928;28;20009;-81
2021/10/07 10:59:22;;;;;;;;;;;;;;;4.03;89.11;100638.69;4973250;28;19918;-81
2021/10/07 11:02:06;;;;;;;;;;;;;;;4.11;88.13;100643.91;4972728;28;19926;-81
2021/10/07 11:04:45;;;;;;;;;;;;;;;4.25;91.47;100647.38;4973089;28;19918;-81
2021/10/07 11:07:23;;;;;;;;;;;;;;;4.11;88.29;100639.53;4973070;28;20022;-81
2021/10/07 11:09:59;;;;;;;;;;;;;;;4.32;84.85;100636.00;4971000;28;20030;-81
2021/10/07 11:12:25;;;;;;;;;;;;;;;4.36;86.26;100639.47;4971819;28;19926;-81
2021/10/07 11:14:50;;;;;;;;;;;;;;;4.28;85.15;100633.38;4971930;28;19919;-81
2021/10/07 11:17:18;;;;;;;;;;;;;;;4.53;84.01;100632.41;4972903;28;19919;-81
2021/10/07 11:19:44;;;;;;;;;;;;;;;4.35;86.51;100632.47;4972849;28;19922;-81
2021/10/07 11:22:11;;;;;;;;;;;;;;;4.43;87.01;100629.81;4972128;28;19925;-81
2021/10/07 11:24:53;;;;;;;;;;;;;;;4.47;87.09;100627.19;4971592;28;19918;-81
2021/10/07 11:27:32;;;;;;;;;;;;;;;4.59;84.89;100625.38;4973098;28;20021;-81
2021/10/07 11:29:57;;;;;;;;;;;;;;;4.53;87.82;100624.53;4971726;28;20033;-81
2021/10/07 11:32:23;;;;;;;;;;;;;;;4.44;88.84;100629.81;4972823;28;20012;-81
2021/10/07 11:35:02;;;;;;;;;;;;;;;4.59;86.60;100628.00;4972731;28;20393;-81
2021/10/07 11:37:48;;;;;;;;;;;;;;;4.59;86.16;100630.63;4972917;28;19918;-81
2021/10/07 11:40:22;;;;;;;;;;;;;;;4.77;84.35;100621.75;4963917;28;19954;-81
2021/10/07 11:42:47;;;;;;;;;;;;;;;4.62;86.50;100627.97;4972550;28;20361;-80
2021/10/07 11:45:27;;;;;;;;;;;;;;;4.54;86.17;100622.75;4972860;28;19969;-81
2021/10/07 11:47:53;;;;;;;;;;;;;;;4.76;85.57;100631.41;4972655;28;19921;-80
2021/10/07 11:50:20;;;;;;;;;;;;;;;4.95;84.16;100628.69;4972769;28;19925;-81
2021/10/07 11:52:45;;;;;;;;;;;;;;;4.82;84.41;100628.75;4970044;28;20388;-81
2021/10/07 11:55:12;;;;;;;;;;;;;;;4.70;86.59;100628.81;4972680;28;19918;-81
2021/10/07 11:57:45;;;;;;;;;;;;;;;4.62;88.34;100626.22;4972579;28;19918;-81
2021/10/07 12:00:10;;;;;;;;;;;;;;;4.87;85.78;100621.72;4974255;28;19965;-81
2021/10/07 12:02:35;;;;;;;;;;;;;;;5.03;84.61;100626.88;4976128;28;20322;-82
2021/10/07 12:05:17;;;;;;;;;;;;;;;4.89;85.20;100619.94;4976555;28;19926;-81
2021/10/07 12:07:42;;;;;;;;;;;;;;;4.93;84.70;100622.53;4974741;28;19914;-81
2021/10/07 12:10:08;;;;;;;;;;;;;;;5.01;85.47;100616.38;4976077;28;19922;-81
2021/10/07 12:12:33;;;;;;;;;;;;;;;5.09;84.41;100611.94;4976234;28;20344;-81
2021/10/07 12:14:59;;;;;;;;;;;;;;;5.06;84.51;100617.22;4976079;28;19929;-81
2021/10/07 12:17:24;;;;;;;;;;;;;;;4.97;87.93;100616.41;4976223;28;19918;-81
2021/10/07 12:19:50;;;;;;;;;;;;;;;4.88;87.50;100622.56;4975930;28;20005;-80
2021/10/07 12:22:26;;;;;;;;;;;;;;;4.99;87.50;100615.50;4975868;28;19922;-82
2021/10/07 12:25:05;;;;;;;;;;;;;;;4.85;88.58;100612.97;4974661;28;19918;-81
2021/10/07 12:27:31;;;;;;;;;;;;;;;4.83;89.98;100625.22;4975831;28;19918;-80
2021/10/07 12:30:02;;;;;;;;;;;;;;;4.89;92.01;100619.06;4976078;28;19972;-81
2021/10/07 12:32:28;;;;;;;;;;;;;;;5.01;90.04;100610.22;4975753;28;19922;-81
2021/10/07 12:34:56;;;;;;;;;;;;;;;4.94;90.63;100616.41;4975971;28;20374;-81
2021/10/07 12:37:26;;;;;;;;;;;;;;;4.92;92.48;100624.31;4975749;28;19949;-81
2021/10/07 12:39:52;;;;;;;;;;;;;;;5.01;91.43;100616.38;4974147;28;20840;-81
2021/10/07 12:42:19;;;;;;;;;;;;;;;5.06;90.09;100624.22;4975610;28;19941;-81
2021/10/07 12:44:47;;;;;;;;;;;;;;;5.08;91.22;100617.19;4975446;28;20000;-81
2021/10/07 12:47:16;;;;;;;;;;;;;;;5.09;90.11;100616.31;4975057;28;19918;-81
2021/10/07 12:49:43;;;;;;;;;;;;;;;5.13;90.99;100620.66;4975413;28;19918;-81
2021/10/07 12:52:15;;;;;;;;;;;;;;;5.35;90.33;100620.50;4975438;28;20397;-82
2021/10/07 12:54:40;;;;;;;;;;;;;;;5.44;90.44;100616.03;4972469;28;19969;-81
2021/10/07 12:57:06;;;;;;;;;;;;;;;5.36;92.80;100609.09;4974477;28;19918;-81
2021/10/07 12:59:51;;;;;;;;;;;;;;;5.18;93.96;100618.00;4975315;28;20009;-81
2021/10/07 13:02:26;;;;;;;;;;;;;;;5.00;95.29;100616.38;4974337;28;20333;-81
2021/10/07 13:04:52;;;;;;;;;;;;;;;4.88;96.07;100626.09;4974871;28;20282;-81
2021/10/07 13:07:23;;;;;;;;;;;;;;;4.83;97.36;100619.97;4975214;28;19925;-81
2021/10/07 13:09:48;;;;;;;;;;;;;;;4.65;98.13;100628.84;4973150;28;19918;-80
2021/10/07 13:12:13;;;;;;;;;;;;;;;4.47;99.41;100626.31;4973833;28;20457;-81
2021/10/07 13:14:38;;;;;;;;;;;;;;;4.27;100.00;100629.00;4975133;28;20285;-81
2021/10/07 13:17:04;;;;;;;;;;;;;;;4.12;100.00;100617.69;4975131;28;19922;-81
2021/10/07 13:19:29;;;;;;;;;;;;;;;4.12;100.00;100625.56;4975052;28;20400;-81
2021/10/07 13:21:54;;;;;;;;;;;;;;;3.99;100.00;100634.34;4974691;28;19924;-81
2021/10/07 13:24:19;;;;;;;;;;;;;;;4.05;100.00;100622.94;4972265;28;20072;-81
2021/10/07 13:26:51;;;;;;;;;;;;;;;4.03;100.00;100622.94;4973468;28;19973;-81
2021/10/07 13:29:17;;;;;;;;;;;;;;;4.59;100.00;100620.13;4974723;28;19918;-81
2021/10/07 13:31:42;;;;;;;;;;;;;;;4.78;100.00;100624.38;4974555;28;19969;-81
2021/10/07 13:34:07;;;;;;;;;;;;;;;5.18;100.00;100632.00;4974706;28;19918;-81
2021/10/07 13:36:33;;;;;;;;;;;;;;;5.45;100.00;100620.41;4974641;28;20385;-81
2021/10/07 13:39:00;;;;;;;;;;;;;;;5.59;100.00;100627.31;4973400;28;20032;-81
2021/10/07 13:41:27;;;;;;;;;;;;;;;5.88;100.00;100624.38;4974367;28;20009;-81
2021/10/07 13:43:52;;;;;;;;;;;;;;;5.97;100.00;100624.34;4974420;28;19981;-81
2021/10/07 13:46:19;;;;;;;;;;;;;;;6.19;100.00;100629.38;4973157;28;19958;-81
2021/10/07 13:48:44;;;;;;;;;;;;;;;6.22;100.00;100626.69;4974290;28;19929;-81
2021/10/07 13:51:09;;;;;;;;;;;;;;;6.27;100.00;100637.16;4974542;28;19918;-80
2021/10/07 13:53:35;;;;;;;;;;;;;;;6.37;100.00;100633.53;4973228;28;19968;-81
2021/10/07 13:56:00;;;;;;;;;;;;;;;6.28;100.00;100631.88;4974278;28;20258;-81
2021/10/07 13:58:25;;;;;;;;;;;;;;;6.32;100.00;100628.31;4974087;28;19945;-81
2021/10/07 14:00:50;;;;;;;;;;;;;;;6.48;100.00;100628.16;4972967;28;19976;-81
2021/10/07 14:03:16;;;;;;;;;;;;;;;6.51;100.00;100628.09;4974129;28;20297;-81
2021/10/07 14:05:44;;;;;;;;;;;;;;;6.58;100.00;100627.13;4974110;28;19925;-81
2021/10/07 14:08:11;;;;;;;;;;;;;;;6.58;100.00;100629.75;4972811;28;19953;-81
2021/10/07 14:10:36;;;;;;;;;;;;;;;6.73;100.00;100626.03;4973982;28;19972;-81
2021/10/07 14:13:02;;;;;;;;;;;;;;;6.73;100.00;100629.56;4973840;28;19918;-81
2021/10/07 14:15:28;;;;;;;;;;;;;;;6.89;100.00;100631.97;4974013;28;20328;-81
2021/10/07 14:17:54;;;;;;;;;;;;;;;6.81;100.00;100631.22;4973941;28;19925;-81
2021/10/07 14:20:20;;;;;;;;;;;;;;;6.79;100.00;100630.38;4973623;28;19966;-81
2021/10/07 14:22:45;;;;;;;;;;;;;;;6.86;100.00;100632.00;4970601;28;20377;-81
2021/10/07 14:25:11;;;;;;;;;;;;;;;6.77;100.00;100626.91;4973793;28;19918;-81
2021/10/07 14:27:36;;;;;;;;;;;;;;;5.22;100.00;100636.38;4973682;28;19919;-81
2021/10/07 14:30:02;;;;;;;;;;;;;;;5.33;100.00;100640.66;4973650;28;19922;-82
2021/10/07 14:32:27;;;;;;;;;;;;;;;4.43;100.00;100641.19;4973775;28;19929;-82
2021/10/07 14:34:52;;;;;;;;;;;;;;;4.02;100.00;100639.59;4973613;28;19925;-84
2021/10/07 14:37:18;;;;;;;;;;;;;;;3.73;100.00;100642.25;4973581;28;20345;-83
2021/10/07 14:39:43;;;;;;;;;;;;;;;3.52;100.00;100643.13;4972332;28;19929;-82
2021/10/07 14:42:08;;;;;;;;;;;;;;;3.41;100.00;100645.75;4973111;28;19926;-82
2021/10/07 14:44:34;;;;;;;;;;;;;;;3.41;100.00;100641.38;4973457;28;20289;-84
2021/10/07 14:46:59;;;;;;;;;;;;;;;3.21;100.00;100643.13;4972093;28;19953;-83
2021/10/07 14:49:24;;;;;;;;;;;;;;;3.12;100.00;100637.88;4972616;28;19918;-82
2021/10/07 14:51:50;;;;;;;;;;;;;;;3.19;100.00;100642.25;4973509;28;19922;-82
2021/10/07 14:54:15;;;;;;;;;;;;;;;3.01;100.00;100636.09;4971219;28;20361;-82
2021/10/07 14:56:40;;;;;;;;;;;;;;;3.03;100.00;100638.72;4973056;28;20370;-82
2021/10/07 14:59:07;;;;;;;;;;;;;;;2.94;100.00;100644.84;4973222;28;19996;-82
2021/10/07 15:01:32;;;;;;;;;;;;;;;2.91;100.00;100642.22;4973107;28;20381;-84
2021/10/07 15:03:57;;;;;;;;;;;;;;;2.82;100.00;100639.56;4973283;28;19918;-83
2021/10/07 15:06:23;;;;;;;;;;;;;;;2.80;100.00;100641.31;4973193;28;20008;-82
2021/10/07 15:08:48;;;;;;;;;;;;;;;2.72;100.00;100639.53;4971896;28;19918;-82
2021/10/07 15:11:17;;;;;;;;;;;;;;;2.66;100.00;100641.25;4973162;28;20412;-83
2021/10/07 15:13:42;;;;;;;;;;;;;;;2.74;100.00;100636.91;4973200;28;20320;-82
2021/10/07 15:16:08;;;;;;;;;;;;;;;2.65;100.00;100637.78;4973163;28;19922;-86
2021/10/07 15:18:35;;;;;;;;;;;;;;;2.55;100.00;100638.59;4971799;28;19987;-84
2021/10/07 15:21:01;;;;;;;;;;;;;;;2.54;100.00;100635.13;4971697;28;19914;-82
2021/10/07 15:23:27;;;;;;;;;;;;;;;2.49;100.00;100635.97;4970593;28;19918;-84
2021/10/07 15:25:52;;;;;;;;;;;;;;;2.46;100.00;100641.22;4970894;28;19949;-83
2021/10/07 15:28:18;;;;;;;;;;;;;;;2.48;100.00;100647.31;4973411;28;19922;-86
2021/10/07 15:30:43;;;;;;;;;;;;;;;2.38;100.00;100641.16;4974405;28;19992;-84
2021/10/07 15:33:08;;;;;;;;;;;;;;;2.35;100.00;100638.53;4974078;28;19965;-90
2021/10/07 15:35:34;;;;;;;;;;;;;;;2.34;100.00;100640.25;4976236;28;20009;-92
2021/10/07 15:38:00;;;;;;;;;;;;;;;2.40;100.00;100634.19;4977653;28;19929;-86
2021/10/07 15:40:25;;;;;;;;;;;;;;;2.38;100.00;100645.50;4976079;28;19922;-84
2021/10/07 15:42:50;;;;;;;;;;;;;;;2.28;100.00;100642.88;4975576;28;20333;-91
2021/10/07 15:45:16;;;;;;;;;;;;;;;2.40;100.00;100641.19;4976624;28;19924;-89
2021/10/07 15:47:41;;;;;;;;;;;;;;;2.44;100.00;100646.44;4976946;28;19921;-85
2021/10/07 15:50:07;;;;;;;;;;;;;;;2.37;100.00;100647.25;4977341;28;20024;-90
2021/10/07 15:52:32;;;;;;;;;;;;;;;2.35;100.00;100654.22;4976099;28;20377;-92
2021/10/07 15:54:57;;;;;;;;;;;;;;;2.34;100.00;100653.34;4975660;28;20384;-85
2021/10/07 15:57:23;;;;;;;;;;;;;;;2.25;100.00;100655.03;4972229;28;19922;-91
2021/10/07 15:59:50;;;;;;;;;;;;;;;2.11;100.00;100662.84;4971719;28;19929;-84
2021/10/07 16:02:18;;;;;;;;;;;;;;;2.20;100.00;100668.09;4975869;28;19965;-85
2021/10/07 16:04:43;;;;;;;;;;;;;;;2.20;100.00;100665.47;4977134;28;19956;-86
2021/10/07 16:07:08;;;;;;;;;;;;;;;2.13;100.00;100661.09;4975327;28;20310;-89
2021/10/07 16:09:33;;;;;;;;;;;;;;;2.12;100.00;100667.19;4975985;28;19968;-84
2021/10/07 16:11:59;;;;;;;;;;;;;;;2.21;100.00;100664.63;4975525;28;20354;-89
2021/10/07 16:14:24;;;;;;;;;;;;;;;2.05;100.00;100661.03;4977201;28;19922;-87
2021/10/07 16:16:49;;;;;;;;;;;;;;;2.10;100.00;100663.69;4976172;28;19974;-85
2021/10/07 16:19:15;;;;;;;;;;;;;;;2.04;100.00;100668.88;4974748;28;19922;-87
2021/10/07 16:21:40;;;;;;;;;;;;;;;2.00;100.00;100665.38;4975203;28;20289;-86
2021/10/07 16:24:05;;;;;;;;;;;;;;;1.92;100.00;100675.78;4974196;28;19922;-84
2021/10/07 16:26:31;;;;;;;;;;;;;;;1.96;100.00;100676.66;4975780;28;20289;-92
2021/10/07 16:28:57;;;;;;;;;;;;;;;1.87;100.00;100672.25;4977459;28;19918;-88
2021/10/07 16:31:23;;;;;;;;;;;;;;;1.89;100.00;100675.75;4976468;28;20041;-92
2021/10/07 16:33:48;;;;;;;;;;;;;;;1.87;100.00;100672.25;4971239;28;20441;-87
2021/10/07 16:36:13;;;;;;;;;;;;;;;1.88;99.78;100674.00;4975729;28;19922;-88
2021/10/07 16:38:39;;;;;;;;;;;;;;;1.89;99.60;100670.53;4974086;28;19929;-92
2021/10/07 16:41:04;;;;;;;;;;;;;;;1.92;99.30;100673.16;4975530;28;19973;-86
2021/10/07 16:43:29;;;;;;;;;;;;;;;1.91;98.88;100674.00;4975245;28;19929;-89
2021/10/07 16:45:55;;;;;;;;;;;;;;;1.86;98.63;100674.88;4975324;28;19981;-89
2021/10/07 16:48:21;;;;;;;;;;;;;;;1.81;98.43;100682.66;4975776;28;20289;-88
2021/10/07 16:50:46;;;;;;;;;;;;;;;1.90;98.37;100677.50;4975652;28;19922;-91
2021/10/07 16:53:11;;;;;;;;;;;;;;;1.88;97.82;100676.59;4974179;28;19922;-89
2021/10/07 16:55:37;;;;;;;;;;;;;;;1.76;97.91;100681.78;4975066;28;19918;-83
2021/10/07 16:58:02;;;;;;;;;;;;;;;1.82;97.90;100687.03;4974998;28;19922;-87
2021/10/07 17:00:27;;;;;;;;;;;;;;;1.84;97.49;100681.84;4976740;28;19918;-87
2021/10/07 17:02:52;;;;;;;;;;;;;;;1.83;97.42;100686.16;4975974;28;19998;-88
2021/10/07 17:05:18;;;;;;;;;;;;;;;1.73;96.97;100682.63;4975259;28;19925;-88
2021/10/07 17:07:43;;;;;;;;;;;;;;;1.81;97.37;100688.75;4974610;28;20100;-82
2021/10/07 17:10:09;;;;;;;;;;;;;;;1.74;97.31;100694.81;4974871;28;20338;-92
2021/10/07 17:12:34;;;;;;;;;;;;;;;1.73;97.00;100700.03;4974870;28;20424;-89
2021/10/07 17:15:00;;;;;;;;;;;;;;;1.71;96.91;100699.13;4975028;28;19994;-84
2021/10/07 17:17:25;;;;;;;;;;;;;;;1.75;96.73;100704.41;4974667;28;19945;-91
2021/10/07 17:19:51;;;;;;;;;;;;;;;1.78;96.70;100695.72;4974918;28;20294;-87
2021/10/07 17:22:17;;;;;;;;;;;;;;;1.73;96.16;100700.03;4974472;28;20017;-91
2021/10/07 17:24:42;;;;;;;;;;;;;;;1.69;95.78;100701.75;4975504;28;20325;-88
2021/10/07 17:27:07;;;;;;;;;;;;;;;1.72;96.04;100703.50;4975899;28;19922;-85
2021/10/07 17:29:33;;;;;;;;;;;;;;;1.69;95.75;100706.09;4974097;28;20409;-91
2021/10/07 17:31:58;;;;;;;;;;;;;;;1.70;95.41;100710.47;4975600;28;19926;-88
2021/10/07 17:34:24;;;;;;;;;;;;;;;1.69;95.18;100711.31;4975777;28;19950;-84
2021/10/07 17:36:49;;;;;;;;;;;;;;;1.65;95.06;100717.41;4974292;28;20009;-85
2021/10/07 17:39:14;;;;;;;;;;;;;;;1.59;95.29;100718.19;4974921;28;19926;-86
2021/10/07 17:41:40;;;;;;;;;;;;;;;1.63;94.70;100717.38;4975649;28;19933;-84
2021/10/07 17:44:05;;;;;;;;;;;;;;;1.67;94.54;100713.91;4974504;28;19919;-90
2021/10/07 17:46:31;;;;;;;;;;;;;;;1.66;94.56;100717.41;4975699;28;19977;-91
2021/10/07 17:48:56;;;;;;;;;;;;;;;1.62;94.68;100724.31;4973385;28;19922;-84
2021/10/07 17:51:22;;;;;;;;;;;;;;;1.68;94.68;100725.25;4974094;28;20404;-92
2021/10/07 17:53:48;;;;;;;;;;;;;;;1.68;94.70;100733.09;4973141;28;20341;-90
2021/10/07 17:56:13;;;;;;;;;;;;;;;1.83;95.65;100733.22;4973327;28;20374;-88
2021/10/07 17:58:38;;;;;;;;;;;;;;;1.98;96.69;100735.09;4972978;28;20359;-90
2021/10/07 18:01:03;;;;;;;;;;;;;;;1.97;97.64;100736.81;4973907;28;19928;-83
2021/10/07 18:03:29;;;;;;;;;;;;;;;2.02;97.86;100729.00;4973966;28;19918;-92
2021/10/07 18:05:54;;;;;;;;;;;;;;;2.00;98.50;100723.75;4973266;28;19926;-86
2021/10/07 18:08:19;;;;;;;;;;;;;;;2.12;99.18;100730.81;4972902;28;19964;-92
2021/10/07 18:10:45;;;;;;;;;;;;;;;2.16;99.70;100731.72;4973799;28;20320;-86
2021/10/07 18:13:10;;;;;;;;;;;;;;;2.31;100.00;100734.44;4971921;28;19922;-83
2021/10/07 18:15:36;;;;;;;;;;;;;;;2.35;100.00;100738.81;4973617;28;20429;-83
2021/10/07 18:18:01;;;;;;;;;;;;;;;2.41;100.00;100742.31;4972996;28;19930;-82
2021/10/07 18:20:29;;;;;;;;;;;;;;;2.53;100.00;100740.63;4971358;28;19922;-84
2021/10/07 18:22:56;;;;;;;;;;;;;;;2.64;100.00;100743.31;4971143;28;19926;-83
2021/10/07 18:25:22;;;;;;;;;;;;;;;2.67;100.00;100737.22;4971145;28;19922;-83
2021/10/07 18:27:53;;;;;;;;;;;;;;;2.67;100.00;100739.84;4967679;28;19937;-83
2021/10/07 18:30:18;;;;;;;;;;;;;;;2.79;100.00;100742.50;4969383;28;19925;-83
2021/10/07 18:32:44;;;;;;;;;;;;;;;2.86;100.00;100735.56;4973215;28;19930;-84
2021/10/07 18:35:10;;;;;;;;;;;;;;;2.97;100.00;100740.81;4971913;28;19922;-84
2021/10/07 18:37:36;;;;;;;;;;;;;;;3.08;100.00;100745.25;4972279;28;20012;-83
2021/10/07 18:40:02;;;;;;;;;;;;;;;3.15;100.00;100743.50;4968751;28;20343;-82
2021/10/07 18:42:28;;;;;;;;;;;;;;;3.24;100.00;100743.53;4971818;28;19922;-83
2021/10/07 18:44:53;;;;;;;;;;;;;;;3.29;100.00;100740.94;4972210;28;20421;-83
2021/10/07 18:47:18;;;;;;;;;;;;;;;3.34;100.00;100743.56;4971129;28;19918;-83
2021/10/07 18:49:43;;;;;;;;;;;;;;;3.36;100.00;100750.53;4971619;28;20308;-83
2021/10/07 18:52:09;;;;;;;;;;;;;;;3.43;100.00;100744.47;4970896;28;19934;-82
2021/10/07 18:54:35;;;;;;;;;;;;;;;3.47;100.00;100744.47;4970444;28;20309;-82